createdAt,value
2022-08-26T00:00:00.255Z,37.67
2022-08-26T00:01:03.355Z,37.74
2022-08-26T00:02:05.974Z,37.74
2022-08-26T00:03:08.503Z,37.50
2022-08-26T00:04:12.148Z,37.65
2022-08-26T00:05:14.828Z,37.70
2022-08-26T00:06:20.859Z,37.55
2022-08-26T00:07:23.795Z,37.61
2022-08-26T00:08:26.424Z,37.77
2022-08-26T00:09:28.783Z,37.70
2022-08-26T00:10:32.215Z,37.73
2022-08-26T00:11:34.979Z,37.60
2022-08-26T00:12:38.127Z,37.66
2022-08-26T00:13:40.532Z,37.71
2022-08-26T00:14:44.904Z,37.59
2022-08-26T00:15:48.710Z,37.50
2022-08-26T00:16:51.496Z,37.62
2022-08-26T00:17:53.903Z,37.71
2022-08-26T00:18:56.474Z,37.72
2022-08-26T00:19:59.143Z,37.66
2022-08-26T00:21:06.045Z,37.60
2022-08-26T00:22:07.043Z,37.64
2022-08-26T00:23:09.549Z,37.67
2022-08-26T00:24:12.947Z,37.54
2022-08-26T00:25:33.701Z,37.52
2022-08-26T00:26:37.055Z,37.64
2022-08-26T00:27:39.379Z,37.59
2022-08-26T00:28:42.188Z,37.62
2022-08-26T00:29:45.098Z,37.60
2022-08-26T00:30:47.494Z,37.60
2022-08-26T00:31:51.740Z,37.53
2022-08-26T00:32:54.207Z,37.61
2022-08-26T00:33:57.117Z,37.55
2022-08-26T00:34:59.426Z,37.60
2022-08-26T00:36:03.521Z,37.48
2022-08-26T00:37:09.407Z,37.49
2022-08-26T00:38:12.006Z,37.52
2022-08-26T00:39:17.383Z,37.52
2022-08-26T00:40:28.951Z,37.57
2022-08-26T00:41:32.100Z,37.58
2022-08-26T00:42:35.404Z,37.52
2022-08-26T00:43:47.190Z,37.58
2022-08-26T00:44:45.028Z,37.57
2022-08-26T00:46:10.553Z,37.40
2022-08-26T00:48:36.058Z,37.29
2022-08-26T00:49:41.548Z,37.47
2022-08-26T00:50:48.009Z,37.54
2022-08-26T00:51:52.531Z,37.48
2022-08-26T00:52:55.932Z,37.55
2022-08-26T00:54:02.218Z,37.50
2022-08-26T00:55:27.559Z,37.56
2022-08-26T00:57:50.738Z,37.54
2022-08-26T00:59:07.225Z,37.61
2022-08-26T01:00:14.189Z,37.57
2022-08-26T01:01:16.581Z,37.63
2022-08-26T01:02:21.365Z,37.86
2022-08-26T01:03:24.393Z,37.86
2022-08-26T01:04:26.561Z,37.54
2022-08-26T01:05:28.924Z,37.58
2022-08-26T01:06:34.012Z,37.54
2022-08-26T01:07:36.498Z,37.47
2022-08-26T01:08:38.879Z,37.53
2022-08-26T01:09:41.700Z,37.48
2022-08-26T01:10:45.266Z,37.44
2022-08-26T01:11:48.418Z,37.39
2022-08-26T01:14:07.038Z,37.44
2022-08-26T01:15:47.260Z,37.49
2022-08-26T01:16:53.050Z,37.50
2022-08-26T01:18:00.481Z,37.42
2022-08-26T01:21:01.882Z,37.39
2022-08-26T01:23:22.596Z,37.41
2022-08-26T01:25:56.130Z,37.45
2022-08-26T01:27:02.326Z,37.44
2022-08-26T01:28:07.231Z,37.41
2022-08-26T01:29:12.745Z,37.43
2022-08-26T01:30:17.733Z,37.36
2022-08-26T01:31:22.825Z,37.40
2022-08-26T01:32:25.360Z,37.41
2022-08-26T01:33:31.197Z,37.40
2022-08-26T01:34:36.310Z,37.37
2022-08-26T01:35:39.148Z,37.41
2022-08-26T01:36:42.621Z,37.38
2022-08-26T01:37:47.309Z,37.34
2022-08-26T01:38:49.519Z,37.31
2022-08-26T01:39:54.022Z,37.36
2022-08-26T01:40:56.741Z,37.31
2022-08-26T01:42:03.147Z,37.34
2022-08-26T01:43:06.639Z,37.29
2022-08-26T01:44:40.164Z,37.35
2022-08-26T01:45:42.867Z,37.32
2022-08-26T01:46:48.334Z,37.32
2022-08-26T01:47:57.151Z,37.37
2022-08-26T01:48:59.297Z,37.32
2022-08-26T01:50:06.256Z,37.36
2022-08-26T01:51:08.890Z,37.31
2022-08-26T01:52:12.029Z,37.31
2022-08-26T01:53:17.449Z,37.31
2022-08-26T01:54:20.575Z,37.26
2022-08-26T01:55:32.458Z,37.15
2022-08-26T01:56:33.473Z,37.25
2022-08-26T01:57:36.072Z,37.18
2022-08-26T02:00:06.213Z,37.14
2022-08-26T02:01:10.562Z,37.17
2022-08-26T02:02:14.394Z,37.16
2022-08-26T02:03:18.097Z,37.03
2022-08-26T02:04:35.552Z,37.04
2022-08-26T02:05:37.977Z,37.10
2022-08-26T02:06:41.043Z,37.49
2022-08-26T02:07:43.586Z,37.49
2022-08-26T02:08:51.580Z,37.15
2022-08-26T02:09:54.087Z,36.87
2022-08-26T02:10:56.432Z,36.99
2022-08-26T02:12:00.254Z,37.06
2022-08-26T02:13:03.976Z,37.10
2022-08-26T02:14:24.031Z,37.09
2022-08-26T02:15:28.115Z,36.81
2022-08-26T02:16:42.242Z,37.03
2022-08-26T02:17:44.970Z,37.09
2022-08-26T02:18:47.293Z,37.09
2022-08-26T02:19:49.753Z,37.09
2022-08-26T02:20:52.970Z,37.06
2022-08-26T02:21:56.530Z,37.07
2022-08-26T02:22:58.925Z,37.04
2022-08-26T02:24:11.617Z,37.02
2022-08-26T02:26:29.049Z,36.96
2022-08-26T02:27:34.945Z,36.90
2022-08-26T02:28:41.542Z,36.94
2022-08-26T02:29:46.840Z,36.89
2022-08-26T02:30:51.230Z,36.81
2022-08-26T02:31:53.510Z,36.83
2022-08-26T02:32:58.495Z,36.90
2022-08-26T02:35:24.399Z,36.80
2022-08-26T02:36:28.553Z,36.88
2022-08-26T02:37:31.277Z,36.80
2022-08-26T02:38:34.154Z,36.80
2022-08-26T02:39:37.283Z,36.89
2022-08-26T02:40:40.866Z,36.74
2022-08-26T02:41:45.243Z,36.77
2022-08-26T02:42:48.024Z,36.65
2022-08-26T02:43:50.381Z,36.77
2022-08-26T02:44:52.534Z,36.62
2022-08-26T02:45:55.135Z,36.75
2022-08-26T02:46:57.791Z,36.81
2022-08-26T02:48:04.612Z,36.65
2022-08-26T02:49:06.912Z,36.80
2022-08-26T02:50:09.958Z,36.75
2022-08-26T02:51:12.316Z,36.84
2022-08-26T02:52:15.717Z,36.75
2022-08-26T02:53:23.183Z,36.80
2022-08-26T02:54:22.159Z,36.85
2022-08-26T02:55:25.079Z,36.89
2022-08-26T02:56:28.483Z,36.68
2022-08-26T02:57:30.621Z,36.83
2022-08-26T02:58:33.418Z,36.80
2022-08-26T02:59:36.708Z,36.82
2022-08-26T03:00:53.163Z,36.78
2022-08-26T03:01:44.879Z,36.83
2022-08-26T03:02:47.220Z,36.61
2022-08-26T03:03:52.439Z,36.73
2022-08-26T03:04:57.927Z,36.81
2022-08-26T03:05:59.590Z,36.81
2022-08-26T03:07:01.957Z,36.51
2022-08-26T03:08:04.229Z,36.51
2022-08-26T03:09:06.762Z,36.71
2022-08-26T03:10:11.764Z,36.77
2022-08-26T03:11:14.100Z,36.71
2022-08-26T03:12:17.405Z,36.63
2022-08-26T03:13:21.324Z,36.72
2022-08-26T03:14:23.987Z,36.72
2022-08-26T03:15:26.404Z,36.44
2022-08-26T03:16:35.854Z,36.87
2022-08-26T03:17:38.389Z,36.69
2022-08-26T03:18:41.992Z,37.04
2022-08-26T03:19:44.349Z,37.11
2022-08-26T03:20:46.929Z,37.01
2022-08-26T03:21:49.355Z,37.10
2022-08-26T03:22:51.506Z,37.26
2022-08-26T03:23:53.752Z,37.18
2022-08-26T03:24:55.905Z,37.30
2022-08-26T03:26:00.270Z,37.24
2022-08-26T03:27:05.923Z,37.33
2022-08-26T03:28:07.760Z,37.26
2022-08-26T03:29:11.750Z,37.38
2022-08-26T03:30:14.885Z,37.48
2022-08-26T03:31:17.310Z,37.65
2022-08-26T03:32:19.553Z,37.61
2022-08-26T03:33:21.812Z,37.79
2022-08-26T03:34:24.076Z,37.88
2022-08-26T03:35:28.645Z,37.84
2022-08-26T03:36:32.377Z,37.87
2022-08-26T03:37:36.974Z,37.73
2022-08-26T03:38:41.182Z,37.55
2022-08-26T03:39:43.432Z,37.83
2022-08-26T03:40:46.437Z,37.86
2022-08-26T03:41:49.915Z,38.02
2022-08-26T03:42:53.549Z,38.08
2022-08-26T03:44:00.985Z,38.02
2022-08-26T03:45:00.422Z,38.06
2022-08-26T03:46:07.022Z,38.00
2022-08-26T03:47:09.420Z,38.11
2022-08-26T03:48:11.854Z,38.11
2022-08-26T03:49:14.306Z,38.12
2022-08-26T03:50:22.971Z,38.12
2022-08-26T03:51:24.262Z,38.14
2022-08-26T03:52:27.774Z,38.06
2022-08-26T03:53:31.293Z,37.92
2022-08-26T03:54:33.744Z,37.98
2022-08-26T03:55:35.899Z,37.79
2022-08-26T03:56:40.125Z,37.87
2022-08-26T03:57:42.677Z,37.81
2022-08-26T03:58:45.954Z,37.86
2022-08-26T03:59:48.275Z,37.81
2022-08-26T04:00:51.388Z,37.86
2022-08-26T04:01:55.450Z,37.51
2022-08-26T04:02:58.403Z,37.51
2022-08-26T04:04:01.273Z,37.77
2022-08-26T04:05:04.446Z,37.70
2022-08-26T04:06:07.226Z,37.67
2022-08-26T04:07:09.375Z,37.67
2022-08-26T04:08:11.631Z,37.71
2022-08-26T04:09:17.528Z,37.66
2022-08-26T04:10:20.981Z,37.64
2022-08-26T04:11:25.679Z,37.62
2022-08-26T04:12:29.148Z,37.53
2022-08-26T04:13:32.959Z,37.16
2022-08-26T04:14:35.288Z,37.25
2022-08-26T04:15:39.655Z,37.39
2022-08-26T04:16:42.631Z,37.35
2022-08-26T04:17:45.786Z,37.30
2022-08-26T04:18:50.238Z,37.11
2022-08-26T04:19:53.331Z,37.20
2022-08-26T04:20:56.923Z,37.11
2022-08-26T04:21:59.252Z,37.11
2022-08-26T04:23:03.591Z,36.93
2022-08-26T04:24:12.057Z,36.99
2022-08-26T04:25:13.239Z,37.01
2022-08-26T04:26:17.729Z,37.03
2022-08-26T04:27:20.261Z,37.03
2022-08-26T04:28:22.971Z,37.05
2022-08-26T04:29:25.838Z,37.01
2022-08-26T04:30:28.706Z,36.95
2022-08-26T04:31:33.150Z,37.03
2022-08-26T04:32:36.609Z,36.91
2022-08-26T04:33:41.834Z,37.06
2022-08-26T04:34:43.621Z,36.96
2022-08-26T04:35:47.621Z,37.05
2022-08-26T04:36:50.953Z,36.96
2022-08-26T04:37:53.074Z,36.98
2022-08-26T04:38:55.433Z,37.00
2022-08-26T04:39:57.642Z,36.91
2022-08-26T04:41:00.633Z,37.06
2022-08-26T04:42:03.347Z,37.09
2022-08-26T04:43:05.945Z,37.01
2022-08-26T04:44:09.505Z,37.03
2022-08-26T04:45:12.228Z,37.11
2022-08-26T04:46:17.960Z,37.08
2022-08-26T04:47:21.429Z,36.98
2022-08-26T04:48:44.134Z,36.92
2022-08-26T04:49:56.646Z,36.97
2022-08-26T04:51:00.363Z,36.93
2022-08-26T04:52:04.873Z,36.90
2022-08-26T04:53:07.653Z,36.92
2022-08-26T04:54:10.592Z,36.91
2022-08-26T04:55:13.819Z,36.87
2022-08-26T04:56:17.647Z,36.84
2022-08-26T04:57:19.830Z,36.82
2022-08-26T04:58:22.793Z,36.75
2022-08-26T04:59:26.006Z,36.92
2022-08-26T05:00:28.411Z,36.37
2022-08-26T05:01:30.599Z,36.57
2022-08-26T05:02:33.037Z,36.72
2022-08-26T05:03:35.903Z,36.79
2022-08-26T05:04:39.078Z,36.78
2022-08-26T05:05:41.563Z,36.80
2022-08-26T05:06:43.962Z,36.83
2022-08-26T05:07:46.573Z,36.79
2022-08-26T05:08:48.894Z,36.74
2022-08-26T05:09:51.040Z,36.76
2022-08-26T05:10:54.439Z,36.78
2022-08-26T05:11:58.046Z,36.80
2022-08-26T05:13:01.851Z,36.84
2022-08-26T05:14:05.561Z,36.83
2022-08-26T05:15:08.896Z,36.79
2022-08-26T05:16:13.287Z,36.81
2022-08-26T05:17:16.065Z,36.77
2022-08-26T05:18:20.187Z,36.77
2022-08-26T05:19:23.112Z,36.79
2022-08-26T05:20:27.175Z,36.80
2022-08-26T05:21:29.409Z,36.77
2022-08-26T05:22:33.607Z,36.76
2022-08-26T05:23:36.663Z,36.76
2022-08-26T05:24:39.410Z,36.72
2022-08-26T05:25:44.116Z,36.75
2022-08-26T05:26:47.132Z,36.74
2022-08-26T05:27:50.303Z,36.57
2022-08-26T05:28:54.742Z,36.63
2022-08-26T05:29:57.921Z,36.65
2022-08-26T05:31:00.500Z,36.59
2022-08-26T05:32:03.980Z,36.62
2022-08-26T05:33:08.542Z,36.65
2022-08-26T05:34:11.108Z,36.64
2022-08-26T05:35:13.796Z,36.60
2022-08-26T05:36:20.961Z,36.62
2022-08-26T05:37:25.333Z,36.54
2022-08-26T05:38:30.500Z,36.55
2022-08-26T05:39:32.813Z,36.53
2022-08-26T05:40:37.783Z,36.52
2022-08-26T05:41:40.959Z,36.38
2022-08-26T05:42:46.218Z,36.38
2022-08-26T05:43:49.236Z,36.46
2022-08-26T05:44:55.660Z,36.40
2022-08-26T05:46:00.683Z,36.33
2022-08-26T05:47:05.796Z,36.25
2022-08-26T05:48:08.511Z,36.19
2022-08-26T05:49:13.722Z,36.25
2022-08-26T05:50:19.008Z,36.27
2022-08-26T05:51:25.399Z,36.22
2022-08-26T05:52:26.764Z,36.16
2022-08-26T05:53:28.961Z,36.11
2022-08-26T05:54:31.456Z,36.11
2022-08-26T05:55:33.985Z,36.15
2022-08-26T05:56:37.223Z,36.20
2022-08-26T05:57:40.553Z,36.20
2022-08-26T05:58:43.854Z,36.18
2022-08-26T05:59:48.749Z,36.21
2022-08-26T06:02:12.479Z,36.16
2022-08-26T06:03:17.064Z,36.13
2022-08-26T06:04:20.442Z,36.19
2022-08-26T06:05:22.967Z,36.23
2022-08-26T06:06:29.186Z,36.20
2022-08-26T06:07:33.196Z,36.21
2022-08-26T06:08:36.786Z,36.18
2022-08-26T06:09:39.319Z,35.99
2022-08-26T06:12:03.119Z,36.08
2022-08-26T06:13:09.123Z,35.90
2022-08-26T06:14:11.018Z,35.87
2022-08-26T06:15:13.698Z,35.98
2022-08-26T06:16:19.245Z,35.98
2022-08-26T06:17:21.624Z,36.04
2022-08-26T06:18:28.901Z,36.09
2022-08-26T06:19:34.464Z,35.98
2022-08-26T06:20:37.477Z,36.02
2022-08-26T06:21:40.777Z,36.07
2022-08-26T06:22:43.171Z,36.11
2022-08-26T06:23:46.014Z,36.16
2022-08-26T06:24:49.156Z,36.07
2022-08-26T06:25:53.357Z,35.96
2022-08-26T06:26:57.382Z,36.01
2022-08-26T06:28:00.783Z,35.81
2022-08-26T06:29:05.693Z,35.82
2022-08-26T06:30:09.631Z,35.95
2022-08-26T06:31:12.782Z,36.03
2022-08-26T06:32:34.943Z,36.06
2022-08-26T06:33:37.777Z,35.91
2022-08-26T06:34:42.328Z,36.08
2022-08-26T06:35:45.415Z,36.11
2022-08-26T06:36:47.858Z,36.19
2022-08-26T06:37:50.394Z,36.14
2022-08-26T06:38:54.191Z,36.18
2022-08-26T06:39:57.037Z,36.26
2022-08-26T06:41:00.704Z,36.26
2022-08-26T06:42:06.282Z,36.32
2022-08-26T06:43:09.703Z,36.38
2022-08-26T06:44:13.225Z,36.33
2022-08-26T06:45:15.731Z,36.29
2022-08-26T06:46:20.709Z,36.27
2022-08-26T06:47:24.004Z,36.27
2022-08-26T06:48:27.637Z,36.25
2022-08-26T06:49:30.421Z,36.11
2022-08-26T06:50:34.507Z,36.02
2022-08-26T06:51:39.051Z,36.00
2022-08-26T06:52:41.531Z,36.08
2022-08-26T06:53:44.296Z,36.13
2022-08-26T06:54:46.983Z,36.08
2022-08-26T06:55:51.863Z,36.12
2022-08-26T06:56:53.513Z,36.21
2022-08-26T06:57:56.990Z,36.03
2022-08-26T06:58:59.633Z,36.05
2022-08-26T07:00:06.895Z,36.07
2022-08-26T07:01:18.368Z,36.08
2022-08-26T07:02:22.832Z,36.12
2022-08-26T07:03:25.741Z,36.12
2022-08-26T07:04:28.224Z,36.10
2022-08-26T07:05:31.235Z,36.11
2022-08-26T07:06:36.936Z,36.12
2022-08-26T07:07:41.262Z,36.07
2022-08-26T07:08:49.200Z,36.10
2022-08-26T07:09:52.801Z,36.15
2022-08-26T07:10:56.411Z,36.16
2022-08-26T07:12:00.976Z,36.15
2022-08-26T07:13:03.314Z,36.11
2022-08-26T07:14:10.927Z,36.04
2022-08-26T07:15:13.218Z,35.99
2022-08-26T07:16:17.480Z,35.51
2022-08-26T07:17:25.005Z,35.40
2022-08-26T07:18:28.124Z,35.61
2022-08-26T07:19:31.737Z,35.61
2022-08-26T07:20:38.239Z,35.71
2022-08-26T07:21:40.547Z,35.82
2022-08-26T07:22:43.847Z,35.90
2022-08-26T07:23:46.740Z,35.90
2022-08-26T07:24:49.469Z,36.00
2022-08-26T07:25:53.150Z,35.89
2022-08-26T07:27:03.520Z,35.78
2022-08-26T07:28:07.824Z,35.86
2022-08-26T07:29:10.332Z,35.99
2022-08-26T07:30:14.871Z,35.97
2022-08-26T07:31:17.925Z,35.96
2022-08-26T07:32:20.795Z,35.98
2022-08-26T07:33:25.111Z,36.01
2022-08-26T07:34:28.087Z,36.01
2022-08-26T07:35:31.510Z,36.04
2022-08-26T07:36:35.340Z,36.07
2022-08-26T07:37:39.361Z,36.02
2022-08-26T07:38:42.018Z,35.81
2022-08-26T07:39:44.418Z,35.96
2022-08-26T07:40:46.634Z,36.02
2022-08-26T07:41:50.337Z,36.07
2022-08-26T07:42:52.658Z,36.07
2022-08-26T07:43:55.831Z,36.05
2022-08-26T07:45:18.011Z,35.89
2022-08-26T07:46:29.970Z,35.80
2022-08-26T07:47:27.416Z,35.88
2022-08-26T07:48:29.797Z,35.97
2022-08-26T07:49:41.784Z,35.54
2022-08-26T07:50:49.182Z,35.62
2022-08-26T07:51:50.588Z,35.78
2022-08-26T07:52:53.370Z,35.64
2022-08-26T07:53:56.544Z,34.89
2022-08-26T07:55:00.671Z,35.16
2022-08-26T07:56:04.628Z,34.89
2022-08-26T07:57:09.253Z,34.88
2022-08-26T07:58:11.934Z,35.23
2022-08-26T07:59:15.903Z,35.25
2022-08-26T08:00:35.473Z,35.16
2022-08-26T08:01:39.294Z,35.25
2022-08-26T08:02:47.749Z,35.42
2022-08-26T08:03:52.964Z,35.26
2022-08-26T08:04:56.299Z,34.93
2022-08-26T08:06:00.788Z,34.63
2022-08-26T08:07:03.154Z,34.96
2022-08-26T08:08:26.747Z,35.21
2022-08-26T08:09:14.252Z,35.33
2022-08-26T08:10:25.218Z,35.43
2022-08-26T08:11:27.766Z,35.41
2022-08-26T08:12:31.575Z,34.83
2022-08-26T08:13:34.028Z,34.66
2022-08-26T08:14:36.631Z,34.57
2022-08-26T08:15:39.516Z,34.95
2022-08-26T08:16:46.741Z,34.81
2022-08-26T08:17:46.956Z,34.98
2022-08-26T08:18:52.521Z,35.16
2022-08-26T08:19:55.145Z,35.29
2022-08-26T08:21:10.883Z,35.33
2022-08-26T08:22:02.826Z,35.46
2022-08-26T08:23:07.415Z,35.56
2022-08-26T08:24:11.100Z,35.66
2022-08-26T08:25:14.606Z,35.63
2022-08-26T08:26:18.468Z,35.54
2022-08-26T08:27:23.897Z,34.48
2022-08-26T08:28:26.788Z,34.12
2022-08-26T08:29:30.374Z,34.67
2022-08-26T08:30:33.012Z,34.91
2022-08-26T08:31:56.887Z,35.23
2022-08-26T08:32:42.451Z,34.25
2022-08-26T08:33:44.879Z,34.55
2022-08-26T08:34:48.235Z,34.86
2022-08-26T08:35:51.814Z,34.73
2022-08-26T08:36:57.841Z,34.43
2022-08-26T08:38:00.368Z,34.86
2022-08-26T08:39:04.866Z,33.74
2022-08-26T08:40:11.205Z,34.69
2022-08-26T08:42:49.243Z,34.71
2022-08-26T08:43:53.006Z,35.24
2022-08-26T08:44:57.224Z,35.21
2022-08-26T08:46:02.610Z,35.24
2022-08-26T08:47:13.390Z,35.17
2022-08-26T08:49:34.625Z,35.43
2022-08-26T08:52:04.183Z,35.61
2022-08-26T08:53:18.696Z,35.70
2022-08-26T08:54:22.171Z,35.58
2022-08-26T08:55:27.331Z,35.84
2022-08-26T08:56:38.357Z,36.03
2022-08-26T08:59:18.898Z,36.13
2022-08-26T09:00:30.243Z,36.41
2022-08-26T09:01:46.707Z,36.43
2022-08-26T09:03:10.283Z,36.37
2022-08-26T09:06:02.557Z,36.13
2022-08-26T09:07:09.506Z,36.34
2022-08-26T09:09:40.489Z,36.52
2022-08-26T09:10:45.812Z,36.83
2022-08-26T09:11:48.679Z,37.21
2022-08-26T09:12:51.989Z,37.00
2022-08-26T09:13:54.627Z,37.22
2022-08-26T09:16:35.138Z,36.88
2022-08-26T09:19:21.060Z,36.50
2022-08-26T09:20:45.359Z,36.69
2022-08-26T09:23:10.451Z,36.53
2022-08-26T09:24:13.956Z,36.61
2022-08-26T09:25:16.852Z,36.64
2022-08-26T09:26:28.730Z,36.63
2022-08-26T09:27:44.454Z,36.52
2022-08-26T09:29:02.339Z,36.52
2022-08-26T09:30:06.732Z,36.35
2022-08-26T09:31:21.486Z,36.47
2022-08-26T09:32:25.719Z,36.42
2022-08-26T09:33:29.874Z,35.98
2022-08-26T09:34:32.757Z,35.86
2022-08-26T09:35:40.388Z,36.02
2022-08-26T09:36:45.207Z,35.81
2022-08-26T09:38:50.282Z,35.87
2022-08-26T09:39:52.616Z,35.92
2022-08-26T09:42:14.314Z,35.90
2022-08-26T09:43:21.988Z,35.91
2022-08-26T09:44:23.044Z,35.85
2022-08-26T09:45:28.710Z,35.98
2022-08-26T09:46:34.253Z,35.84
2022-08-26T09:47:49.021Z,35.53
2022-08-26T09:48:53.024Z,35.42
2022-08-26T09:51:23.743Z,35.30
2022-08-26T09:52:25.939Z,35.22
2022-08-26T09:54:43.063Z,35.32
2022-08-26T09:55:50.030Z,35.17
2022-08-26T09:56:52.557Z,35.20
2022-08-26T09:57:55.008Z,35.18
2022-08-26T09:59:00.816Z,35.17
2022-08-26T10:01:33.797Z,34.97
2022-08-26T10:02:37.735Z,34.91
2022-08-26T10:03:41.028Z,34.91
2022-08-26T10:04:55.295Z,34.89
2022-08-26T10:07:12.598Z,34.33
2022-08-26T10:08:25.604Z,34.37
2022-08-26T10:09:29.903Z,35.03
2022-08-26T10:10:38.036Z,34.70
2022-08-26T10:11:51.362Z,34.58
2022-08-26T10:13:12.512Z,34.60
2022-08-26T10:15:31.735Z,33.40
2022-08-26T10:16:41.085Z,34.12
2022-08-26T10:17:53.605Z,34.11
2022-08-26T10:19:05.712Z,33.83
2022-08-26T10:20:23.346Z,33.76
2022-08-26T10:21:22.632Z,33.82
2022-08-26T10:23:59.206Z,33.69
2022-08-26T10:25:04.408Z,33.71
2022-08-26T10:26:17.426Z,33.76
2022-08-26T10:27:48.401Z,33.53
2022-08-26T10:28:50.454Z,33.81
2022-08-26T10:29:56.542Z,33.42
2022-08-26T10:31:06.471Z,33.69
2022-08-26T10:32:13.792Z,33.66
2022-08-26T10:33:17.936Z,33.68
2022-08-26T10:34:21.082Z,33.29
2022-08-26T10:35:23.648Z,33.01
2022-08-26T10:36:30.077Z,32.78
2022-08-26T10:37:36.328Z,32.56
2022-08-26T10:38:38.722Z,32.62
2022-08-26T10:39:59.414Z,32.60
2022-08-26T10:41:16.944Z,31.91
2022-08-26T10:42:39.550Z,32.34
2022-08-26T10:43:46.360Z,31.86
2022-08-26T10:44:52.156Z,31.80
2022-08-26T10:47:16.007Z,31.81
2022-08-26T10:48:35.842Z,31.73
2022-08-26T10:49:32.757Z,31.86
2022-08-26T10:50:39.751Z,31.84
2022-08-26T10:52:16.594Z,31.71
2022-08-26T10:53:38.514Z,31.65
2022-08-26T10:54:45.441Z,31.84
2022-08-26T10:55:57.753Z,30.94
2022-08-26T10:57:10.636Z,31.55
2022-08-26T10:58:26.662Z,31.33
2022-08-26T10:59:44.895Z,31.39
2022-08-26T11:00:52.343Z,31.25
2022-08-26T11:01:58.566Z,31.37
2022-08-26T11:03:21.908Z,31.25
2022-08-26T11:04:47.145Z,31.34
2022-08-26T11:06:07.261Z,31.52
2022-08-26T11:07:34.145Z,31.63
2022-08-26T11:08:38.972Z,31.92
2022-08-26T11:09:43.692Z,31.66
2022-08-26T11:10:58.917Z,31.65
2022-08-26T11:12:06.426Z,31.64
2022-08-26T11:13:06.193Z,31.82
2022-08-26T11:14:29.332Z,31.90
2022-08-26T11:15:32.869Z,31.72
2022-08-26T11:16:43.468Z,31.42
2022-08-26T11:17:49.338Z,31.41
2022-08-26T11:18:51.627Z,30.94
2022-08-26T11:20:01.500Z,31.17
2022-08-26T11:21:01.798Z,30.73
2022-08-26T11:22:09.035Z,30.48
2022-08-26T11:23:27.127Z,30.35
2022-08-26T11:24:44.230Z,31.03
2022-08-26T11:25:59.697Z,30.87
2022-08-26T11:27:03.223Z,30.51
2022-08-26T11:28:06.189Z,30.43
2022-08-26T11:29:13.201Z,30.13
2022-08-26T11:30:18.468Z,29.97
2022-08-26T11:31:29.290Z,30.03
2022-08-26T11:32:41.244Z,29.77
2022-08-26T11:33:49.533Z,29.83
2022-08-26T11:36:12.500Z,30.43
2022-08-26T11:37:25.921Z,30.25
2022-08-26T11:38:30.223Z,29.63
2022-08-26T11:39:55.338Z,29.14
2022-08-26T11:41:11.895Z,29.02
2022-08-26T11:42:34.983Z,29.69
2022-08-26T11:43:38.607Z,29.73
2022-08-26T11:45:05.419Z,29.82
2022-08-26T11:47:29.451Z,30.34
2022-08-26T11:48:34.797Z,29.81
2022-08-26T11:49:38.298Z,30.10
2022-08-26T11:50:40.612Z,30.19
2022-08-26T11:51:48.140Z,30.67
2022-08-26T11:54:11.270Z,30.89
2022-08-26T11:55:13.845Z,30.82
2022-08-26T11:56:31.751Z,29.83
2022-08-26T11:57:35.377Z,29.13
2022-08-26T12:00:31.408Z,30.04
2022-08-26T12:02:47.874Z,30.58
2022-08-26T12:05:13.387Z,30.00
2022-08-26T12:06:29.258Z,30.06
2022-08-26T12:07:31.454Z,29.57
2022-08-26T12:08:36.996Z,29.99
2022-08-26T12:09:51.521Z,30.63
2022-08-26T12:11:04.918Z,30.79
2022-08-26T12:13:29.918Z,29.98
2022-08-26T12:14:33.709Z,30.04
2022-08-26T12:15:36.419Z,30.08
2022-08-26T12:16:40.998Z,30.36
2022-08-26T12:17:44.408Z,30.91
2022-08-26T12:18:47.457Z,31.22
2022-08-26T12:19:51.440Z,31.06
2022-08-26T12:20:54.071Z,31.03
2022-08-26T12:23:42.202Z,31.60
2022-08-26T12:26:30.152Z,32.25
2022-08-26T12:27:34.760Z,32.50
2022-08-26T12:28:49.022Z,32.72
2022-08-26T12:30:21.868Z,32.90
2022-08-26T12:31:33.618Z,32.96
2022-08-26T12:32:37.066Z,33.23
2022-08-26T12:33:41.136Z,33.08
2022-08-26T12:34:45.341Z,32.54
2022-08-26T12:35:51.423Z,32.87
2022-08-26T12:36:55.448Z,32.77
2022-08-26T12:37:58.166Z,32.82
2022-08-26T12:40:40.148Z,33.08
2022-08-26T12:41:46.308Z,33.13
2022-08-26T12:42:48.668Z,33.32
2022-08-26T12:43:51.031Z,33.48
2022-08-26T12:45:04.555Z,33.42
2022-08-26T12:46:09.800Z,33.84
2022-08-26T12:48:37.033Z,33.81
2022-08-26T12:49:39.708Z,33.60
2022-08-26T12:50:49.316Z,33.74
2022-08-26T12:51:52.006Z,33.75
2022-08-26T12:54:14.747Z,33.71
2022-08-26T12:55:29.160Z,33.91
2022-08-26T12:56:38.012Z,33.91
2022-08-26T12:57:41.404Z,33.92
2022-08-26T12:58:46.244Z,34.01
2022-08-26T12:59:49.930Z,34.23
2022-08-26T13:01:08.806Z,34.17
2022-08-26T13:02:14.584Z,34.17
2022-08-26T13:03:34.477Z,34.44
2022-08-26T13:04:40.936Z,34.68
2022-08-26T13:07:21.394Z,34.70
2022-08-26T13:08:28.269Z,34.55
2022-08-26T13:09:30.833Z,34.39
2022-08-26T13:11:51.524Z,33.84
2022-08-26T13:12:54.817Z,33.31
2022-08-26T13:14:06.992Z,33.21
2022-08-26T13:15:08.246Z,33.75
2022-08-26T13:16:11.677Z,33.83
2022-08-26T13:17:14.706Z,33.99
2022-08-26T13:18:17.097Z,34.53
2022-08-26T13:19:21.692Z,35.01
2022-08-26T13:20:25.701Z,35.17
2022-08-26T13:21:37.438Z,35.32
2022-08-26T13:22:37.812Z,35.69
2022-08-26T13:23:42.625Z,35.04
2022-08-26T13:24:45.790Z,33.54
2022-08-26T13:25:48.964Z,32.40
2022-08-26T13:26:51.502Z,31.18
2022-08-26T13:27:53.807Z,30.45
2022-08-26T13:29:01.456Z,29.98
2022-08-26T13:30:00.288Z,29.56
2022-08-26T13:31:03.989Z,29.12
2022-08-26T13:32:08.204Z,28.81
2022-08-26T13:33:12.262Z,28.28
2022-08-26T13:34:17.903Z,28.16
2022-08-26T13:35:21.487Z,28.19
2022-08-26T13:36:25.898Z,28.01
2022-08-26T13:37:34.443Z,27.82
2022-08-26T13:38:34.092Z,28.11
2022-08-26T13:39:37.009Z,28.14
2022-08-26T13:41:53.053Z,27.83
2022-08-26T13:42:55.328Z,27.76
2022-08-26T13:43:58.880Z,28.02
2022-08-26T13:45:02.738Z,28.60
2022-08-26T13:46:06.509Z,28.50
2022-08-26T13:47:09.903Z,27.70
2022-08-26T13:48:12.459Z,28.46
2022-08-26T13:49:15.026Z,28.73
2022-08-26T13:50:19.129Z,29.12
2022-08-26T13:51:21.701Z,28.78
2022-08-26T13:52:27.280Z,28.32
2022-08-26T13:53:28.575Z,27.95
2022-08-26T13:54:31.750Z,27.56
2022-08-26T13:55:34.935Z,27.48
2022-08-26T13:56:38.318Z,27.36
2022-08-26T13:57:40.579Z,27.25
2022-08-26T13:58:42.738Z,27.07
2022-08-26T13:59:45.715Z,26.93
2022-08-26T14:00:48.473Z,26.93
2022-08-26T14:01:51.564Z,27.05
2022-08-26T14:02:53.976Z,27.26
2022-08-26T14:03:56.661Z,27.06
2022-08-26T14:05:01.721Z,26.98
2022-08-26T14:06:05.313Z,26.62
2022-08-26T14:07:07.765Z,26.55
2022-08-26T14:08:10.405Z,26.62
2022-08-26T14:09:13.015Z,26.46
2022-08-26T14:10:17.133Z,26.38
2022-08-26T14:11:19.477Z,26.31
2022-08-26T14:12:21.843Z,26.28
2022-08-26T14:13:24.961Z,26.07
2022-08-26T14:14:27.692Z,26.11
2022-08-26T14:16:58.946Z,26.03
2022-08-26T14:17:51.264Z,25.85
2022-08-26T14:18:54.749Z,25.88
2022-08-26T14:19:58.141Z,25.85
2022-08-26T14:21:00.807Z,25.72
2022-08-26T14:22:03.885Z,25.64
2022-08-26T14:23:14.389Z,25.68
2022-08-26T14:24:11.582Z,25.72
2022-08-26T14:25:15.268Z,25.82
2022-08-26T14:26:29.330Z,25.88
2022-08-26T14:27:23.999Z,25.87
2022-08-26T14:28:28.513Z,25.82
2022-08-26T14:29:31.786Z,25.74
2022-08-26T14:30:34.465Z,25.86
2022-08-26T14:31:36.895Z,25.86
2022-08-26T14:32:42.259Z,25.80
2022-08-26T14:33:44.590Z,25.79
2022-08-26T14:34:47.906Z,25.77
2022-08-26T14:35:52.166Z,25.74
2022-08-26T14:36:54.874Z,25.78
2022-08-26T14:37:57.378Z,25.88
2022-08-26T14:39:04.019Z,25.94
2022-08-26T14:40:12.376Z,25.98
2022-08-26T14:41:15.588Z,25.96
2022-08-26T14:42:22.860Z,25.95
2022-08-26T14:43:25.227Z,25.84
2022-08-26T14:44:30.249Z,25.78
2022-08-26T14:45:32.544Z,25.84
2022-08-26T14:46:38.947Z,25.75
2022-08-26T14:47:41.435Z,25.70
2022-08-26T14:48:46.666Z,25.63
2022-08-26T14:49:49.125Z,25.55
2022-08-26T14:50:51.695Z,25.50
2022-08-26T14:51:55.196Z,25.50
2022-08-26T14:52:58.878Z,25.55
2022-08-26T14:54:02.673Z,25.65
2022-08-26T14:55:06.069Z,25.65
2022-08-26T14:56:09.721Z,25.71
2022-08-26T14:57:14.559Z,25.76
2022-08-26T14:58:18.783Z,25.74
2022-08-26T15:00:36.089Z,25.88
2022-08-26T15:01:39.907Z,25.90
2022-08-26T15:02:42.650Z,25.79
2022-08-26T15:03:45.744Z,25.82
2022-08-26T15:04:48.101Z,25.81